createdAt,value
2022-11-18T00:08:02.784Z,95424.88
2022-11-18T00:18:07.988Z,95422.98
2022-11-18T00:28:11.653Z,95420.38
2022-11-18T00:38:15.316Z,95423.30
2022-11-18T00:48:22.375Z,95400.63
2022-11-18T00:58:26.238Z,95388.23
2022-11-18T01:08:29.821Z,95397.45
2022-11-18T01:18:33.777Z,95403.52
2022-11-18T01:28:38.156Z,95394.67
2022-11-18T01:38:41.719Z,95391.38
2022-11-18T01:48:48.206Z,95389.30
2022-11-18T01:58:58.111Z,95395.38
2022-11-18T02:09:02.755Z,95384.87
2022-11-18T02:19:33.411Z,95377.45
2022-11-18T02:30:10.866Z,95363.11
2022-11-18T02:40:20.506Z,95334.77
2022-11-18T02:50:27.755Z,95337.71
2022-11-18T03:00:32.710Z,95351.88
2022-11-18T03:10:59.076Z,95360.18
2022-11-18T03:21:09.096Z,95353.43
2022-11-18T03:31:21.248Z,95342.73
2022-11-18T03:41:26.699Z,95342.73
2022-11-18T03:51:37.835Z,95327.84
2022-11-18T04:01:49.038Z,95310.05
2022-11-18T04:12:06.002Z,95305.02
2022-11-18T04:22:10.583Z,95302.41
2022-11-18T04:32:14.262Z,95294.14
2022-11-18T04:42:17.933Z,95298.48
2022-11-18T04:52:21.573Z,95310.23
2022-11-18T05:02:25.360Z,95311.64
2022-11-18T05:12:48.145Z,95294.02
2022-11-18T05:22:51.914Z,95305.41
2022-11-18T05:32:55.579Z,95322.70
2022-11-18T05:43:11.527Z,95320.09
2022-11-18T05:53:16.422Z,95319.92
2022-11-18T06:03:30.561Z,95337.17
2022-11-18T06:13:50.870Z,95347.54
2022-11-18T06:23:55.591Z,95348.91
2022-11-18T06:33:59.416Z,95369.63
2022-11-18T06:44:04.073Z,95370.14
2022-11-18T06:54:10.878Z,95375.86
2022-11-18T07:04:15.439Z,95372.93
2022-11-18T07:14:19.225Z,95381.73
2022-11-18T07:24:22.969Z,95383.48
2022-11-18T07:34:26.724Z,95370.71
2022-11-18T07:44:30.708Z,95368.47
2022-11-18T07:54:35.313Z,95349.64
2022-11-18T08:04:40.153Z,95362.23
2022-11-18T08:14:43.945Z,95373.30
2022-11-18T08:24:48.217Z,95373.81
2022-11-18T08:34:52.753Z,95380.20
2022-11-18T08:44:56.574Z,95382.45
2022-11-18T08:55:01.064Z,95382.46
2022-11-18T09:05:05.343Z,95403.38
2022-11-18T09:15:14.937Z,95408.56
2022-11-18T09:25:19.106Z,95398.88
2022-11-18T09:35:23.309Z,95400.11
2022-11-18T09:45:38.822Z,95415.99
2022-11-18T09:55:43.403Z,95424.13
2022-11-18T10:06:07.732Z,95425.50
2022-11-18T10:16:26.758Z,95426.52
2022-11-18T10:26:43.519Z,95419.09
2022-11-18T10:37:28.173Z,95420.48
2022-11-18T10:47:43.157Z,95405.97
2022-11-18T10:57:48.686Z,95406.82
2022-11-18T11:08:35.770Z,95413.73
2022-11-18T11:18:43.680Z,95422.89
2022-11-18T11:29:18.021Z,95418.55
2022-11-18T11:39:34.190Z,95428.05
2022-11-18T11:49:54.480Z,95430.28
2022-11-18T12:00:12.553Z,95413.35
2022-11-18T12:10:16.480Z,95413.15
2022-11-18T12:20:42.597Z,95424.36
2022-11-18T12:30:46.446Z,95428.30
2022-11-18T12:40:53.057Z,95441.68
2022-11-18T12:50:59.869Z,95449.39
2022-11-18T13:01:11.210Z,95445.37
2022-11-18T13:11:36.421Z,95454.08
2022-11-18T13:21:59.739Z,95468.46
2022-11-18T13:32:15.549Z,95467.68
2022-11-18T13:42:28.085Z,95468.30
2022-11-18T13:52:38.850Z,95485.86
2022-11-18T14:02:46.954Z,95496.52
2022-11-18T14:23:30.569Z,95494.91
2022-11-18T14:33:37.167Z,95508.41
2022-11-18T14:43:41.573Z,95524.17
2022-11-18T14:53:45.548Z,95536.19
2022-11-18T15:03:49.218Z,95540.55
2022-11-18T15:13:53.080Z,95553.02
2022-11-18T15:23:57.183Z,95566.77
2022-11-18T15:34:06.635Z,95574.47
2022-11-18T15:44:12.223Z,95581.94
2022-11-18T15:54:16.187Z,95600.68
2022-11-18T16:04:20.366Z,95616.09
2022-11-18T16:14:25.127Z,95609.34
2022-11-18T16:24:29.774Z,95620.13
2022-11-18T16:34:34.501Z,95632.49
2022-11-18T16:44:38.761Z,95640.43
2022-11-18T16:54:45.597Z,95651.98
2022-11-18T17:04:50.792Z,95652.27
2022-11-18T17:14:54.782Z,95648.62
2022-11-18T17:25:04.910Z,95657.09
2022-11-18T17:35:10.382Z,95664.77
2022-11-18T17:45:14.860Z,95672.06
2022-11-18T17:55:19.058Z,95674.48
2022-11-18T18:05:25.682Z,95681.97
2022-11-18T18:15:30.800Z,95694.77
2022-11-18T18:25:34.951Z,95701.19
2022-11-18T18:35:42.171Z,95704.27
2022-11-18T18:46:07.757Z,95709.52
2022-11-18T18:56:12.754Z,95727.84
2022-11-18T19:06:47.531Z,95734.66
2022-11-18T19:16:43.515Z,95738.27
2022-11-18T19:26:49.464Z,95741.48
2022-11-18T19:36:57.188Z,95736.48
2022-11-18T19:47:02.608Z,95742.60
2022-11-18T19:57:11.243Z,95745.83
2022-11-18T20:07:17.247Z,95756.90
2022-11-18T20:17:25.126Z,95765.48
2022-11-18T20:27:29.937Z,95780.23
2022-11-18T20:37:35.826Z,95759.48
2022-11-18T20:47:47.297Z,95757.73
2022-11-18T20:57:53.115Z,95760.88
2022-11-18T21:07:58.003Z,95788.09
2022-11-18T21:18:02.884Z,95807.20
2022-11-18T21:28:07.506Z,95800.25
2022-11-18T21:38:12.405Z,95806.15
2022-11-18T21:48:16.363Z,95814.94
2022-11-18T21:58:20.451Z,95825.35
2022-11-18T22:08:24.309Z,95834.46
2022-11-18T22:18:36.872Z,95846.95
2022-11-18T22:28:40.863Z,95858.33
2022-11-18T22:38:46.037Z,95864.86
2022-11-18T22:48:50.227Z,95875.17
2022-11-18T22:58:54.392Z,95873.41
2022-11-18T23:08:58.061Z,95881.89
2022-11-18T23:19:03.947Z,95900.61
2022-11-18T23:29:07.781Z,95895.69
2022-11-18T23:39:12.598Z,95900.79
2022-11-18T23:49:16.461Z,95919.81
2022-11-18T23:59:21.230Z,95927.08
